sensor_id;sensor_type;location;lat;lon;timestamp;pressure;altitude;pressure_sealevel;temperature
8227;BMP180;4154;48.810;9.012;2023-09-07T00:00:21;97468.00;;;16.60
8227;BMP180;4154;48.810;9.012;2023-09-07T00:02:47;97467.00;;;16.60
8227;BMP180;4154;48.810;9.012;2023-09-07T00:05:13;97462.00;;;16.50
8227;BMP180;4154;48.810;9.012;2023-09-07T00:07:40;97460.00;;;16.50
8227;BMP180;4154;48.810;9.012;2023-09-07T00:10:06;97465.00;;;16.50
8227;BMP180;4154;48.810;9.012;2023-09-07T00:12:32;97463.00;;;16.50
8227;BMP180;4154;48.810;9.012;2023-09-07T00:14:59;97467.00;;;16.50
8227;BMP180;4154;48.810;9.012;2023-09-07T00:17:25;97467.00;;;16.50
8227;BMP180;4154;48.810;9.012;2023-09-07T00:19:51;97465.00;;;16.50
8227;BMP180;4154;48.810;9.012;2023-09-07T00:22:18;97467.00;;;16.40
8227;BMP180;4154;48.810;9.012;2023-09-07T00:24:45;97460.00;;;16.40
8227;BMP180;4154;48.810;9.012;2023-09-07T00:27:11;97461.00;;;16.40
8227;BMP180;4154;48.810;9.012;2023-09-07T00:29:40;97457.00;;;16.40
8227;BMP180;4154;48.810;9.012;2023-09-07T00:32:06;97460.00;;;16.30
8227;BMP180;4154;48.810;9.012;2023-09-07T00:34:33;97467.00;;;16.30
8227;BMP180;4154;48.810;9.012;2023-09-07T00:36:59;97462.00;;;16.20
8227;BMP180;4154;48.810;9.012;2023-09-07T00:39:26;97458.00;;;16.10
8227;BMP180;4154;48.810;9.012;2023-09-07T00:41:52;97461.00;;;16.10
8227;BMP180;4154;48.810;9.012;2023-09-07T00:44:18;97458.00;;;16.10
8227;BMP180;4154;48.810;9.012;2023-09-07T00:46:44;97455.00;;;16.00
8227;BMP180;4154;48.810;9.012;2023-09-07T00:49:13;97455.00;;;16.00
8227;BMP180;4154;48.810;9.012;2023-09-07T00:51:39;97449.00;;;16.00
8227;BMP180;4154;48.810;9.012;2023-09-07T00:54:06;97456.00;;;16.00
8227;BMP180;4154;48.810;9.012;2023-09-07T00:56:32;97454.00;;;16.00
8227;BMP180;4154;48.810;9.012;2023-09-07T00:58:58;97450.00;;;16.00
8227;BMP180;4154;48.810;9.012;2023-09-07T01:01:26;97455.00;;;16.00
8227;BMP180;4154;48.810;9.012;2023-09-07T01:03:52;97454.00;;;16.00
8227;BMP180;4154;48.810;9.012;2023-09-07T01:06:25;97454.00;;;16.00
8227;BMP180;4154;48.810;9.012;2023-09-07T01:08:57;97445.00;;;15.90
8227;BMP180;4154;48.810;9.012;2023-09-07T01:11:24;97456.00;;;15.90
8227;BMP180;4154;48.810;9.012;2023-09-07T01:13:50;97450.00;;;15.80
8227;BMP180;4154;48.810;9.012;2023-09-07T01:16:20;97444.00;;;15.80
8227;BMP180;4154;48.810;9.012;2023-09-07T01:18:47;97445.00;;;15.70
8227;BMP180;4154;48.810;9.012;2023-09-07T01:21:14;97448.00;;;15.70
8227;BMP180;4154;48.810;9.012;2023-09-07T01:23:44;97441.00;;;15.70
8227;BMP180;4154;48.810;9.012;2023-09-07T01:26:11;97443.00;;;15.70
8227;BMP180;4154;48.810;9.012;2023-09-07T01:28:37;97436.00;;;15.60
8227;BMP180;4154;48.810;9.012;2023-09-07T01:31:04;97435.00;;;15.70
8227;BMP180;4154;48.810;9.012;2023-09-07T01:33:30;97443.00;;;15.60
8227;BMP180;4154;48.810;9.012;2023-09-07T01:35:56;97432.00;;;15.60
8227;BMP180;4154;48.810;9.012;2023-09-07T01:38:22;97439.00;;;15.60
8227;BMP180;4154;48.810;9.012;2023-09-07T01:40:48;97440.00;;;15.60
8227;BMP180;4154;48.810;9.012;2023-09-07T01:43:14;97434.00;;;15.60
8227;BMP180;4154;48.810;9.012;2023-09-07T01:45:40;97435.00;;;15.60
8227;BMP180;4154;48.810;9.012;2023-09-07T01:48:10;97436.00;;;15.50
8227;BMP180;4154;48.810;9.012;2023-09-07T01:50:37;97428.00;;;15.50
8227;BMP180;4154;48.810;9.012;2023-09-07T01:53:04;97438.00;;;15.50
8227;BMP180;4154;48.810;9.012;2023-09-07T01:55:31;97443.00;;;15.40
8227;BMP180;4154;48.810;9.012;2023-09-07T01:57:57;97444.00;;;15.40
8227;BMP180;4154;48.810;9.012;2023-09-07T02:00:23;97441.00;;;15.30
8227;BMP180;4154;48.810;9.012;2023-09-07T02:02:49;97441.00;;;15.30
8227;BMP180;4154;48.810;9.012;2023-09-07T02:05:15;97440.00;;;15.30
8227;BMP180;4154;48.810;9.012;2023-09-07T02:07:42;97445.00;;;15.30
8227;BMP180;4154;48.810;9.012;2023-09-07T02:10:09;97446.00;;;15.20
8227;BMP180;4154;48.810;9.012;2023-09-07T02:12:35;97443.00;;;15.20
8227;BMP180;4154;48.810;9.012;2023-09-07T02:15:04;97438.00;;;15.20
8227;BMP180;4154;48.810;9.012;2023-09-07T02:17:30;97444.00;;;15.10
8227;BMP180;4154;48.810;9.012;2023-09-07T02:19:56;97433.00;;;15.10
8227;BMP180;4154;48.810;9.012;2023-09-07T02:22:22;97440.00;;;15.10
8227;BMP180;4154;48.810;9.012;2023-09-07T02:24:48;97445.00;;;15.10
8227;BMP180;4154;48.810;9.012;2023-09-07T02:27:14;97427.00;;;15.10
8227;BMP180;4154;48.810;9.012;2023-09-07T02:29:40;97442.00;;;15.00
8227;BMP180;4154;48.810;9.012;2023-09-07T02:32:06;97427.00;;;15.10
8227;BMP180;4154;48.810;9.012;2023-09-07T02:34:32;97431.00;;;15.00
8227;BMP180;4154;48.810;9.012;2023-09-07T02:37:02;97427.00;;;15.00
8227;BMP180;4154;48.810;9.012;2023-09-07T02:39:29;97429.00;;;15.00
8227;BMP180;4154;48.810;9.012;2023-09-07T02:41:55;97437.00;;;14.90
8227;BMP180;4154;48.810;9.012;2023-09-07T02:44:21;97426.00;;;14.90
8227;BMP180;4154;48.810;9.012;2023-09-07T02:46:47;97426.00;;;14.80
8227;BMP180;4154;48.810;9.012;2023-09-07T02:49:13;97421.00;;;14.80
8227;BMP180;4154;48.810;9.012;2023-09-07T02:51:39;97424.00;;;14.80
8227;BMP180;4154;48.810;9.012;2023-09-07T02:54:05;97421.00;;;14.80
8227;BMP180;4154;48.810;9.012;2023-09-07T02:56:31;97424.00;;;14.80
8227;BMP180;4154;48.810;9.012;2023-09-07T02:58:56;97433.00;;;14.80
8227;BMP180;4154;48.810;9.012;2023-09-07T03:01:23;97436.00;;;14.80
8227;BMP180;4154;48.810;9.012;2023-09-07T03:03:49;97437.00;;;14.80
8227;BMP180;4154;48.810;9.012;2023-09-07T03:06:15;97422.00;;;14.80
8227;BMP180;4154;48.810;9.012;2023-09-07T03:08:44;97424.00;;;14.80
8227;BMP180;4154;48.810;9.012;2023-09-07T03:11:10;97426.00;;;14.80
8227;BMP180;4154;48.810;9.012;2023-09-07T03:13:36;97422.00;;;14.80
8227;BMP180;4154;48.810;9.012;2023-09-07T03:16:03;97416.00;;;14.70
8227;BMP180;4154;48.810;9.012;2023-09-07T03:18:31;97415.00;;;14.70
8227;BMP180;4154;48.810;9.012;2023-09-07T03:21:01;97415.00;;;14.60
8227;BMP180;4154;48.810;9.012;2023-09-07T03:23:31;97413.00;;;14.60
8227;BMP180;4154;48.810;9.012;2023-09-07T03:25:58;97403.00;;;14.60
8227;BMP180;4154;48.810;9.012;2023-09-07T03:28:25;97414.00;;;14.60
8227;BMP180;4154;48.810;9.012;2023-09-07T03:30:51;97416.00;;;14.60
8227;BMP180;4154;48.810;9.012;2023-09-07T03:33:17;97410.00;;;14.60
8227;BMP180;4154;48.810;9.012;2023-09-07T03:35:43;97408.00;;;14.60
8227;BMP180;4154;48.810;9.012;2023-09-07T03:38:09;97413.00;;;14.60
8227;BMP180;4154;48.810;9.012;2023-09-07T03:40:35;97405.00;;;14.60
8227;BMP180;4154;48.810;9.012;2023-09-07T03:43:01;97405.00;;;14.50
8227;BMP180;4154;48.810;9.012;2023-09-07T03:45:27;97404.00;;;14.50
8227;BMP180;4154;48.810;9.012;2023-09-07T03:47:53;97411.00;;;14.50
8227;BMP180;4154;48.810;9.012;2023-09-07T03:50:19;97400.00;;;14.40
8227;BMP180;4154;48.810;9.012;2023-09-07T03:52:44;97405.00;;;14.40
8227;BMP180;4154;48.810;9.012;2023-09-07T03:55:10;97399.00;;;14.40
8227;BMP180;4154;48.810;9.012;2023-09-07T03:57:36;97403.00;;;14.40
8227;BMP180;4154;48.810;9.012;2023-09-07T04:00:02;97408.00;;;14.40
8227;BMP180;4154;48.810;9.012;2023-09-07T04:02:33;97404.00;;;14.40
8227;BMP180;4154;48.810;9.012;2023-09-07T04:04:58;97402.00;;;14.40
8227;BMP180;4154;48.810;9.012;2023-09-07T04:07:24;97412.00;;;14.40
8227;BMP180;4154;48.810;9.012;2023-09-07T04:09:50;97401.00;;;14.40
8227;BMP180;4154;48.810;9.012;2023-09-07T04:12:16;97403.00;;;14.30
8227;BMP180;4154;48.810;9.012;2023-09-07T04:14:42;97404.00;;;14.30
8227;BMP180;4154;48.810;9.012;2023-09-07T04:17:08;97398.00;;;14.20
8227;BMP180;4154;48.810;9.012;2023-09-07T04:19:34;97394.00;;;14.20
8227;BMP180;4154;48.810;9.012;2023-09-07T04:22:00;97389.00;;;14.10
8227;BMP180;4154;48.810;9.012;2023-09-07T04:24:26;97401.00;;;14.20
8227;BMP180;4154;48.810;9.012;2023-09-07T04:27:01;97403.00;;;14.20
8227;BMP180;4154;48.810;9.012;2023-09-07T04:29:28;97403.00;;;14.10
8227;BMP180;4154;48.810;9.012;2023-09-07T04:31:54;97398.00;;;14.10
8227;BMP180;4154;48.810;9.012;2023-09-07T04:34:21;97397.00;;;14.10
8227;BMP180;4154;48.810;9.012;2023-09-07T04:36:48;97402.00;;;14.10
8227;BMP180;4154;48.810;9.012;2023-09-07T04:39:14;97387.00;;;14.10
8227;BMP180;4154;48.810;9.012;2023-09-07T04:41:40;97395.00;;;14.10
8227;BMP180;4154;48.810;9.012;2023-09-07T04:44:07;97394.00;;;14.10
8227;BMP180;4154;48.810;9.012;2023-09-07T04:46:32;97394.00;;;14.10
8227;BMP180;4154;48.810;9.012;2023-09-07T04:48:58;97400.00;;;14.10
8227;BMP180;4154;48.810;9.012;2023-09-07T04:51:25;97407.00;;;14.10
8227;BMP180;4154;48.810;9.012;2023-09-07T04:53:51;97401.00;;;14.10
8227;BMP180;4154;48.810;9.012;2023-09-07T04:56:17;97411.00;;;14.00
8227;BMP180;4154;48.810;9.012;2023-09-07T04:58:43;97416.00;;;14.10
8227;BMP180;4154;48.810;9.012;2023-09-07T05:01:12;97399.00;;;14.00
8227;BMP180;4154;48.810;9.012;2023-09-07T05:03:38;97407.00;;;14.00
8227;BMP180;4154;48.810;9.012;2023-09-07T05:06:05;97416.00;;;13.90
8227;BMP180;4154;48.810;9.012;2023-09-07T05:08:32;97408.00;;;13.90
8227;BMP180;4154;48.810;9.012;2023-09-07T05:11:00;97409.00;;;13.90
8227;BMP180;4154;48.810;9.012;2023-09-07T05:13:26;97417.00;;;13.80
8227;BMP180;4154;48.810;9.012;2023-09-07T05:15:54;97410.00;;;13.90
8227;BMP180;4154;48.810;9.012;2023-09-07T05:18:20;97418.00;;;13.90
8227;BMP180;4154;48.810;9.012;2023-09-07T05:20:47;97414.00;;;13.90
8227;BMP180;4154;48.810;9.012;2023-09-07T05:23:18;97410.00;;;13.90
8227;BMP180;4154;48.810;9.012;2023-09-07T05:25:53;97418.00;;;14.00
8227;BMP180;4154;48.810;9.012;2023-09-07T05:28:21;97418.00;;;14.00
8227;BMP180;4154;48.810;9.012;2023-09-07T05:30:48;97424.00;;;13.90
8227;BMP180;4154;48.810;9.012;2023-09-07T05:33:16;97429.00;;;13.90
8227;BMP180;4154;48.810;9.012;2023-09-07T05:35:42;97426.00;;;14.00
8227;BMP180;4154;48.810;9.012;2023-09-07T05:38:09;97430.00;;;14.00
8227;BMP180;4154;48.810;9.012;2023-09-07T05:40:37;97427.00;;;14.00
8227;BMP180;4154;48.810;9.012;2023-09-07T05:43:03;97424.00;;;14.10
8227;BMP180;4154;48.810;9.012;2023-09-07T05:45:38;97427.00;;;14.10
8227;BMP180;4154;48.810;9.012;2023-09-07T05:48:05;97426.00;;;14.00
8227;BMP180;4154;48.810;9.012;2023-09-07T05:50:36;97440.00;;;14.10
8227;BMP180;4154;48.810;9.012;2023-09-07T05:53:03;97433.00;;;14.10
8227;BMP180;4154;48.810;9.012;2023-09-07T05:55:29;97435.00;;;14.10
8227;BMP180;4154;48.810;9.012;2023-09-07T05:57:56;97432.00;;;14.10
8227;BMP180;4154;48.810;9.012;2023-09-07T06:00:23;97435.00;;;14.20
8227;BMP180;4154;48.810;9.012;2023-09-07T06:02:49;97439.00;;;14.20
8227;BMP180;4154;48.810;9.012;2023-09-07T06:05:16;97437.00;;;14.20
8227;BMP180;4154;48.810;9.012;2023-09-07T06:07:43;97438.00;;;14.30
8227;BMP180;4154;48.810;9.012;2023-09-07T06:10:09;97446.00;;;14.30
8227;BMP180;4154;48.810;9.012;2023-09-07T06:12:35;97442.00;;;14.30
8227;BMP180;4154;48.810;9.012;2023-09-07T06:15:02;97439.00;;;14.30
8227;BMP180;4154;48.810;9.012;2023-09-07T06:17:28;97438.00;;;14.40
8227;BMP180;4154;48.810;9.012;2023-09-07T06:19:55;97435.00;;;14.40
8227;BMP180;4154;48.810;9.012;2023-09-07T06:22:21;97429.00;;;14.50
8227;BMP180;4154;48.810;9.012;2023-09-07T06:24:47;97433.00;;;14.50
8227;BMP180;4154;48.810;9.012;2023-09-07T06:27:14;97438.00;;;14.60
8227;BMP180;4154;48.810;9.012;2023-09-07T06:29:40;97437.00;;;14.60
8227;BMP180;4154;48.810;9.012;2023-09-07T06:32:05;97445.00;;;14.60
8227;BMP180;4154;48.810;9.012;2023-09-07T06:34:31;97442.00;;;14.70
8227;BMP180;4154;48.810;9.012;2023-09-07T06:36:57;97432.00;;;14.70
8227;BMP180;4154;48.810;9.012;2023-09-07T06:39:23;97438.00;;;14.80
8227;BMP180;4154;48.810;9.012;2023-09-07T06:41:50;97444.00;;;14.80
8227;BMP180;4154;48.810;9.012;2023-09-07T06:44:15;97447.00;;;14.90
8227;BMP180;4154;48.810;9.012;2023-09-07T06:46:41;97439.00;;;15.00
8227;BMP180;4154;48.810;9.012;2023-09-07T06:49:07;97449.00;;;15.00
8227;BMP180;4154;48.810;9.012;2023-09-07T06:51:34;97446.00;;;15.10
8227;BMP180;4154;48.810;9.012;2023-09-07T06:53:59;97461.00;;;15.20
8227;BMP180;4154;48.810;9.012;2023-09-07T06:56:26;97456.00;;;15.30
8227;BMP180;4154;48.810;9.012;2023-09-07T06:58:56;97460.00;;;15.40
8227;BMP180;4154;48.810;9.012;2023-09-07T07:01:22;97464.00;;;15.40
8227;BMP180;4154;48.810;9.012;2023-09-07T07:03:48;97458.00;;;15.50
8227;BMP180;4154;48.810;9.012;2023-09-07T07:06:15;97463.00;;;15.60
8227;BMP180;4154;48.810;9.012;2023-09-07T07:08:41;97466.00;;;15.70
8227;BMP180;4154;48.810;9.012;2023-09-07T07:11:06;97467.00;;;15.80
8227;BMP180;4154;48.810;9.012;2023-09-07T07:13:33;97468.00;;;15.90
8227;BMP180;4154;48.810;9.012;2023-09-07T07:15:59;97471.00;;;15.90
8227;BMP180;4154;48.810;9.012;2023-09-07T07:18:25;97471.00;;;16.00
8227;BMP180;4154;48.810;9.012;2023-09-07T07:20:52;97472.00;;;16.10
8227;BMP180;4154;48.810;9.012;2023-09-07T07:23:18;97466.00;;;16.20
8227;BMP180;4154;48.810;9.012;2023-09-07T07:25:44;97474.00;;;16.20
8227;BMP180;4154;48.810;9.012;2023-09-07T07:28:10;97480.00;;;16.30
8227;BMP180;4154;48.810;9.012;2023-09-07T07:30:38;97471.00;;;16.40
8227;BMP180;4154;48.810;9.012;2023-09-07T07:33:07;97471.00;;;16.50
8227;BMP180;4154;48.810;9.012;2023-09-07T07:35:34;97469.00;;;16.50
8227;BMP180;4154;48.810;9.012;2023-09-07T07:38:04;97470.00;;;16.60
8227;BMP180;4154;48.810;9.012;2023-09-07T07:40:30;97469.00;;;16.70
8227;BMP180;4154;48.810;9.012;2023-09-07T07:42:56;97468.00;;;16.70
8227;BMP180;4154;48.810;9.012;2023-09-07T07:45:23;97465.00;;;16.80
8227;BMP180;4154;48.810;9.012;2023-09-07T07:47:49;97465.00;;;16.90
8227;BMP180;4154;48.810;9.012;2023-09-07T07:50:15;97463.00;;;17.00
8227;BMP180;4154;48.810;9.012;2023-09-07T07:52:42;97462.00;;;17.00
8227;BMP180;4154;48.810;9.012;2023-09-07T07:55:09;97470.00;;;17.10
8227;BMP180;4154;48.810;9.012;2023-09-07T07:57:35;97459.00;;;17.10
8227;BMP180;4154;48.810;9.012;2023-09-07T08:00:01;97467.00;;;17.20
8227;BMP180;4154;48.810;9.012;2023-09-07T08:02:29;97458.00;;;17.20
8227;BMP180;4154;48.810;9.012;2023-09-07T08:04:55;97460.00;;;17.30
8227;BMP180;4154;48.810;9.012;2023-09-07T08:07:21;97457.00;;;17.40
8227;BMP180;4154;48.810;9.012;2023-09-07T08:09:47;97458.00;;;17.50
8227;BMP180;4154;48.810;9.012;2023-09-07T08:12:13;97464.00;;;17.50
8227;BMP180;4154;48.810;9.012;2023-09-07T08:14:39;97456.00;;;17.70
8227;BMP180;4154;48.810;9.012;2023-09-07T08:17:05;97454.00;;;17.80
8227;BMP180;4154;48.810;9.012;2023-09-07T08:19:33;97448.00;;;17.90
8227;BMP180;4154;48.810;9.012;2023-09-07T08:21:59;97460.00;;;18.00
8227;BMP180;4154;48.810;9.012;2023-09-07T08:24:25;97461.00;;;18.20
8227;BMP180;4154;48.810;9.012;2023-09-07T08:26:51;97449.00;;;18.30
8227;BMP180;4154;48.810;9.012;2023-09-07T08:29:20;97457.00;;;18.40
8227;BMP180;4154;48.810;9.012;2023-09-07T08:31:46;97453.00;;;18.40
8227;BMP180;4154;48.810;9.012;2023-09-07T08:34:14;97465.00;;;18.50
8227;BMP180;4154;48.810;9.012;2023-09-07T08:36:45;97451.00;;;18.50
8227;BMP180;4154;48.810;9.012;2023-09-07T08:39:12;97464.00;;;18.50
8227;BMP180;4154;48.810;9.012;2023-09-07T08:41:43;97458.00;;;18.60
8227;BMP180;4154;48.810;9.012;2023-09-07T08:44:16;97461.00;;;18.70
8227;BMP180;4154;48.810;9.012;2023-09-07T08:46:44;97457.00;;;18.80
8227;BMP180;4154;48.810;9.012;2023-09-07T08:49:11;97456.00;;;18.90
8227;BMP180;4154;48.810;9.012;2023-09-07T08:51:38;97459.00;;;18.90
8227;BMP180;4154;48.810;9.012;2023-09-07T08:54:05;97465.00;;;19.00
8227;BMP180;4154;48.810;9.012;2023-09-07T08:56:33;97462.00;;;19.10
8227;BMP180;4154;48.810;9.012;2023-09-07T08:58:59;97456.00;;;19.20
8227;BMP180;4154;48.810;9.012;2023-09-07T09:01:26;97463.00;;;19.30
8227;BMP180;4154;48.810;9.012;2023-09-07T09:03:52;97458.00;;;19.30
8227;BMP180;4154;48.810;9.012;2023-09-07T09:06:20;97464.00;;;19.40
8227;BMP180;4154;48.810;9.012;2023-09-07T09:08:53;97469.00;;;19.40
8227;BMP180;4154;48.810;9.012;2023-09-07T09:11:20;97465.00;;;19.60
8227;BMP180;4154;48.810;9.012;2023-09-07T09:13:47;97463.00;;;19.60
8227;BMP180;4154;48.810;9.012;2023-09-07T09:16:13;97470.00;;;19.70
8227;BMP180;4154;48.810;9.012;2023-09-07T09:21:18;97466.00;;;19.80
8227;BMP180;4154;48.810;9.012;2023-09-07T09:23:49;97459.00;;;19.90
8227;BMP180;4154;48.810;9.012;2023-09-07T09:26:18;97468.00;;;19.90
8227;BMP180;4154;48.810;9.012;2023-09-07T09:28:45;97459.00;;;20.00
8227;BMP180;4154;48.810;9.012;2023-09-07T09:31:11;97463.00;;;20.10
8227;BMP180;4154;48.810;9.012;2023-09-07T09:33:41;97458.00;;;20.20
8227;BMP180;4154;48.810;9.012;2023-09-07T09:36:08;97457.00;;;20.30
8227;BMP180;4154;48.810;9.012;2023-09-07T09:38:35;97449.00;;;20.30
8227;BMP180;4154;48.810;9.012;2023-09-07T09:41:02;97455.00;;;20.30
8227;BMP180;4154;48.810;9.012;2023-09-07T09:43:31;97448.00;;;20.40
8227;BMP180;4154;48.810;9.012;2023-09-07T09:45:59;97448.00;;;20.50
8227;BMP180;4154;48.810;9.012;2023-09-07T09:48:27;97442.00;;;20.60
8227;BMP180;4154;48.810;9.012;2023-09-07T09:50:53;97443.00;;;20.70
8227;BMP180;4154;48.810;9.012;2023-09-07T09:53:20;97447.00;;;20.70
8227;BMP180;4154;48.810;9.012;2023-09-07T09:55:50;97440.00;;;20.80
8227;BMP180;4154;48.810;9.012;2023-09-07T09:58:18;97441.00;;;20.90
8227;BMP180;4154;48.810;9.012;2023-09-07T10:00:47;97439.00;;;21.00
8227;BMP180;4154;48.810;9.012;2023-09-07T10:03:28;97437.00;;;21.00
8227;BMP180;4154;48.810;9.012;2023-09-07T10:06:06;97441.00;;;21.00
8227;BMP180;4154;48.810;9.012;2023-09-07T10:08:33;97442.00;;;21.10
8227;BMP180;4154;48.810;9.012;2023-09-07T10:10:59;97452.00;;;21.10
8227;BMP180;4154;48.810;9.012;2023-09-07T10:13:30;97444.00;;;21.20
8227;BMP180;4154;48.810;9.012;2023-09-07T10:16:05;97447.00;;;21.30
8227;BMP180;4154;48.810;9.012;2023-09-07T10:18:39;97451.00;;;21.50
8227;BMP180;4154;48.810;9.012;2023-09-07T10:21:06;97449.00;;;21.50
8227;BMP180;4154;48.810;9.012;2023-09-07T10:23:45;97440.00;;;21.50
8227;BMP180;4154;48.810;9.012;2023-09-07T10:26:13;97436.00;;;21.60
8227;BMP180;4154;48.810;9.012;2023-09-07T10:28:40;97428.00;;;21.70
8227;BMP180;4154;48.810;9.012;2023-09-07T10:31:16;97424.00;;;21.80
8227;BMP180;4154;48.810;9.012;2023-09-07T10:33:43;97432.00;;;21.80
8227;BMP180;4154;48.810;9.012;2023-09-07T10:36:27;97426.00;;;21.90
8227;BMP180;4154;48.810;9.012;2023-09-07T10:38:55;97422.00;;;22.00
8227;BMP180;4154;48.810;9.012;2023-09-07T10:41:22;97423.00;;;22.10
8227;BMP180;4154;48.810;9.012;2023-09-07T10:43:53;97417.00;;;22.20
8227;BMP180;4154;48.810;9.012;2023-09-07T10:46:21;97420.00;;;22.40
8227;BMP180;4154;48.810;9.012;2023-09-07T10:48:52;97423.00;;;22.40
8227;BMP180;4154;48.810;9.012;2023-09-07T10:51:21;97416.00;;;22.50
8227;BMP180;4154;48.810;9.012;2023-09-07T10:53:47;97417.00;;;22.60
8227;BMP180;4154;48.810;9.012;2023-09-07T10:56:13;97409.00;;;22.60
8227;BMP180;4154;48.810;9.012;2023-09-07T10:58:39;97420.00;;;22.70
8227;BMP180;4154;48.810;9.012;2023-09-07T11:01:07;97415.00;;;22.90
8227;BMP180;4154;48.810;9.012;2023-09-07T11:03:34;97411.00;;;22.90
8227;BMP180;4154;48.810;9.012;2023-09-07T11:06:20;97409.00;;;23.00
8227;BMP180;4154;48.810;9.012;2023-09-07T11:08:46;97411.00;;;23.00
8227;BMP180;4154;48.810;9.012;2023-09-07T11:11:13;97406.00;;;23.10
8227;BMP180;4154;48.810;9.012;2023-09-07T11:13:39;97406.00;;;23.10
8227;BMP180;4154;48.810;9.012;2023-09-07T11:16:09;97404.00;;;23.20
8227;BMP180;4154;48.810;9.012;2023-09-07T11:18:35;97410.00;;;23.20
8227;BMP180;4154;48.810;9.012;2023-09-07T11:21:02;97415.00;;;23.30
8227;BMP180;4154;48.810;9.012;2023-09-07T11:23:33;97400.00;;;23.40
8227;BMP180;4154;48.810;9.012;2023-09-07T11:26:07;97404.00;;;23.60
8227;BMP180;4154;48.810;9.012;2023-09-07T11:28:33;97404.00;;;23.50
8227;BMP180;4154;48.810;9.012;2023-09-07T11:31:00;97402.00;;;23.60
8227;BMP180;4154;48.810;9.012;2023-09-07T11:33:26;97411.00;;;23.70
8227;BMP180;4154;48.810;9.012;2023-09-07T11:35:53;97413.00;;;23.70
8227;BMP180;4154;48.810;9.012;2023-09-07T11:38:22;97412.00;;;23.70
8227;BMP180;4154;48.810;9.012;2023-09-07T11:40:48;97409.00;;;23.80
8227;BMP180;4154;48.810;9.012;2023-09-07T11:43:17;97408.00;;;23.80
8227;BMP180;4154;48.810;9.012;2023-09-07T11:45:46;97401.00;;;23.90
8227;BMP180;4154;48.810;9.012;2023-09-07T11:48:12;97402.00;;;23.90
8227;BMP180;4154;48.810;9.012;2023-09-07T11:50:39;97399.00;;;23.90
8227;BMP180;4154;48.810;9.012;2023-09-07T11:53:06;97405.00;;;24.00
8227;BMP180;4154;48.810;9.012;2023-09-07T11:55:33;97406.00;;;24.20
8227;BMP180;4154;48.810;9.012;2023-09-07T11:58:04;97400.00;;;24.20
8227;BMP180;4154;48.810;9.012;2023-09-07T12:00:32;97400.00;;;24.30
8227;BMP180;4154;48.810;9.012;2023-09-07T12:02:59;97406.00;;;24.30
8227;BMP180;4154;48.810;9.012;2023-09-07T12:05:25;97390.00;;;24.40
8227;BMP180;4154;48.810;9.012;2023-09-07T12:07:51;97390.00;;;24.40
8227;BMP180;4154;48.810;9.012;2023-09-07T12:10:17;97389.00;;;24.50
8227;BMP180;4154;48.810;9.012;2023-09-07T12:12:43;97389.00;;;24.50
8227;BMP180;4154;48.810;9.012;2023-09-07T12:15:10;97397.00;;;24.70
8227;BMP180;4154;48.810;9.012;2023-09-07T12:17:39;97394.00;;;24.70
8227;BMP180;4154;48.810;9.012;2023-09-07T12:20:06;97388.00;;;24.70
8227;BMP180;4154;48.810;9.012;2023-09-07T12:22:39;97382.00;;;24.70
8227;BMP180;4154;48.810;9.012;2023-09-07T12:25:05;97388.00;;;24.70
8227;BMP180;4154;48.810;9.012;2023-09-07T12:27:35;97392.00;;;24.70
8227;BMP180;4154;48.810;9.012;2023-09-07T12:30:02;97385.00;;;24.80
8227;BMP180;4154;48.810;9.012;2023-09-07T12:32:28;97394.00;;;24.80
8227;BMP180;4154;48.810;9.012;2023-09-07T12:34:54;97387.00;;;24.90
8227;BMP180;4154;48.810;9.012;2023-09-07T12:37:20;97386.00;;;24.90
8227;BMP180;4154;48.810;9.012;2023-09-07T12:39:49;97389.00;;;24.90
8227;BMP180;4154;48.810;9.012;2023-09-07T12:42:16;97389.00;;;25.00
8227;BMP180;4154;48.810;9.012;2023-09-07T12:44:42;97388.00;;;25.10
8227;BMP180;4154;48.810;9.012;2023-09-07T12:47:08;97393.00;;;25.10
8227;BMP180;4154;48.810;9.012;2023-09-07T12:49:34;97390.00;;;25.10
8227;BMP180;4154;48.810;9.012;2023-09-07T12:52:00;97385.00;;;25.10
8227;BMP180;4154;48.810;9.012;2023-09-07T12:54:26;97384.00;;;25.20
8227;BMP180;4154;48.810;9.012;2023-09-07T12:56:52;97382.00;;;25.30
8227;BMP180;4154;48.810;9.012;2023-09-07T12:59:18;97381.00;;;25.30
8227;BMP180;4154;48.810;9.012;2023-09-07T13:01:44;97372.00;;;25.30
8227;BMP180;4154;48.810;9.012;2023-09-07T13:04:10;97362.00;;;25.40
8227;BMP180;4154;48.810;9.012;2023-09-07T13:06:37;97371.00;;;25.50
8227;BMP180;4154;48.810;9.012;2023-09-07T13:09:03;97364.00;;;25.60
8227;BMP180;4154;48.810;9.012;2023-09-07T13:11:30;97373.00;;;25.60
8227;BMP180;4154;48.810;9.012;2023-09-07T13:13:56;97372.00;;;25.60
8227;BMP180;4154;48.810;9.012;2023-09-07T13:16:22;97372.00;;;25.50
8227;BMP180;4154;48.810;9.012;2023-09-07T13:18:49;97374.00;;;25.60
8227;BMP180;4154;48.810;9.012;2023-09-07T13:21:15;97369.00;;;25.70
8227;BMP180;4154;48.810;9.012;2023-09-07T13:23:40;97367.00;;;25.70
8227;BMP180;4154;48.810;9.012;2023-09-07T13:26:07;97362.00;;;25.80
8227;BMP180;4154;48.810;9.012;2023-09-07T13:28:33;97370.00;;;25.90
8227;BMP180;4154;48.810;9.012;2023-09-07T13:30:59;97366.00;;;25.90
8227;BMP180;4154;48.810;9.012;2023-09-07T13:33:25;97371.00;;;25.90
8227;BMP180;4154;48.810;9.012;2023-09-07T13:35:51;97363.00;;;26.00
8227;BMP180;4154;48.810;9.012;2023-09-07T13:38:17;97360.00;;;26.00
8227;BMP180;4154;48.810;9.012;2023-09-07T13:40:43;97361.00;;;25.90
8227;BMP180;4154;48.810;9.012;2023-09-07T13:43:09;97361.00;;;26.10
8227;BMP180;4154;48.810;9.012;2023-09-07T13:45:35;97354.00;;;26.10
8227;BMP180;4154;48.810;9.012;2023-09-07T13:48:01;97353.00;;;26.00
8227;BMP180;4154;48.810;9.012;2023-09-07T13:50:28;97349.00;;;26.00
8227;BMP180;4154;48.810;9.012;2023-09-07T13:52:55;97355.00;;;26.00
8227;BMP180;4154;48.810;9.012;2023-09-07T13:55:22;97352.00;;;26.10
8227;BMP180;4154;48.810;9.012;2023-09-07T13:57:48;97353.00;;;26.20
8227;BMP180;4154;48.810;9.012;2023-09-07T14:00:14;97356.00;;;26.20
8227;BMP180;4154;48.810;9.012;2023-09-07T14:02:39;97351.00;;;26.20
8227;BMP180;4154;48.810;9.012;2023-09-07T14:05:06;97347.00;;;26.20
8227;BMP180;4154;48.810;9.012;2023-09-07T14:07:31;97352.00;;;26.20
8227;BMP180;4154;48.810;9.012;2023-09-07T14:09:57;97348.00;;;26.20
8227;BMP180;4154;48.810;9.012;2023-09-07T14:12:23;97356.00;;;26.20
8227;BMP180;4154;48.810;9.012;2023-09-07T14:14:49;97350.00;;;26.20
8227;BMP180;4154;48.810;9.012;2023-09-07T14:17:16;97349.00;;;26.20
8227;BMP180;4154;48.810;9.012;2023-09-07T14:19:42;97345.00;;;26.20
8227;BMP180;4154;48.810;9.012;2023-09-07T14:22:08;97349.00;;;26.30
8227;BMP180;4154;48.810;9.012;2023-09-07T14:24:33;97354.00;;;26.30
8227;BMP180;4154;48.810;9.012;2023-09-07T14:26:59;97354.00;;;26.30
8227;BMP180;4154;48.810;9.012;2023-09-07T14:29:25;97348.00;;;26.30
8227;BMP180;4154;48.810;9.012;2023-09-07T14:31:53;97353.00;;;26.40
8227;BMP180;4154;48.810;9.012;2023-09-07T14:34:19;97348.00;;;26.40